createdAt,value
2018-04-10T00:02:21.118Z,37.17
2018-04-10T00:04:47.363Z,36.23
2018-04-10T00:07:13.580Z,38.00
2018-04-10T00:09:39.800Z,37.70
2018-04-10T00:12:06.059Z,37.97
2018-04-10T00:14:32.288Z,37.73
2018-04-10T00:16:58.545Z,36.90
2018-04-10T00:19:25.513Z,38.33
2018-04-10T00:21:52.558Z,37.17
2018-04-10T00:24:19.529Z,37.37
2018-04-10T00:26:45.727Z,37.70
2018-04-10T00:29:12.714Z,38.47
2018-04-10T00:31:38.917Z,36.97
2018-04-10T00:34:05.176Z,36.63
2018-04-10T00:36:31.398Z,37.97
2018-04-10T00:41:30.617Z,34.97
2018-04-10T00:43:56.903Z,35.57
2018-04-10T00:46:23.159Z,36.60
2018-04-10T00:48:49.337Z,35.20
2018-04-10T00:51:16.290Z,36.67
2018-04-10T00:53:43.272Z,36.97
2018-04-10T00:56:09.467Z,38.40
2018-04-10T00:58:36.441Z,35.63
2018-04-10T01:01:02.770Z,37.10
2018-04-10T01:03:29.052Z,36.07
2018-04-10T01:05:56.076Z,36.07
2018-04-10T01:08:22.366Z,35.33
2018-04-10T01:10:48.568Z,37.30
2018-04-10T01:13:15.552Z,35.90
2018-04-10T01:15:41.793Z,36.37
2018-04-10T01:18:08.022Z,35.80
2018-04-10T01:20:34.305Z,38.00
2018-04-10T01:23:00.607Z,37.03
2018-04-10T01:25:26.831Z,38.47
2018-04-10T01:27:53.023Z,37.20
2018-04-10T01:30:19.258Z,37.67
2018-04-10T01:32:45.460Z,36.33
2018-04-10T01:35:11.667Z,37.53
2018-04-10T01:37:38.659Z,37.90
2018-04-10T01:40:04.958Z,36.50
2018-04-10T01:42:31.928Z,37.97
2018-04-10T01:44:58.176Z,37.90
2018-04-10T01:47:24.399Z,36.03
2018-04-10T01:49:50.600Z,37.77
2018-04-10T01:52:16.779Z,37.70
2018-04-10T01:54:43.047Z,38.37
2018-04-10T01:57:09.399Z,37.80
2018-04-10T01:59:35.596Z,37.73
2018-04-10T02:02:02.598Z,37.70
2018-04-10T02:04:28.825Z,36.60
2018-04-10T02:06:55.073Z,36.80
2018-04-10T02:09:21.271Z,37.00
2018-04-10T02:11:47.630Z,34.90
2018-04-10T02:14:14.736Z,37.10
2018-04-10T02:16:40.994Z,37.90
2018-04-10T02:19:07.224Z,35.90
2018-04-10T02:21:33.458Z,35.13
2018-04-10T02:23:59.756Z,37.10
2018-04-10T02:26:26.028Z,37.23
2018-04-10T02:28:52.240Z,36.40
2018-04-10T02:31:18.512Z,36.63
2018-04-10T02:33:45.538Z,35.27
2018-04-10T02:36:12.030Z,34.60
2018-04-10T02:38:38.367Z,35.80
2018-04-10T02:41:04.606Z,35.40
2018-04-10T02:43:30.833Z,35.80
2018-04-10T02:45:57.048Z,35.37
2018-04-10T02:48:23.260Z,34.90
2018-04-10T02:50:49.579Z,35.50
2018-04-10T02:53:15.872Z,34.93
2018-04-10T02:55:42.816Z,35.97
2018-04-10T02:58:09.824Z,34.57
2018-04-10T03:00:36.078Z,33.77
2018-04-10T03:03:03.135Z,35.13
2018-04-10T03:05:29.372Z,35.80
2018-04-10T03:07:55.672Z,35.73
2018-04-10T03:10:22.835Z,35.50
2018-04-10T03:12:49.103Z,34.77
2018-04-10T03:15:15.347Z,35.20
2018-04-10T03:17:41.687Z,36.07
2018-04-10T03:20:07.884Z,35.17
2018-04-10T03:22:34.111Z,36.17
2018-04-10T03:25:00.310Z,36.13
2018-04-10T03:27:26.604Z,36.37
2018-04-10T03:29:52.936Z,36.50
2018-04-10T03:32:19.170Z,36.77
2018-04-10T03:34:45.375Z,36.23
2018-04-10T03:37:11.572Z,35.57
2018-04-10T03:39:37.764Z,34.60
2018-04-10T03:42:03.971Z,34.73
2018-04-10T03:44:30.209Z,34.20
2018-04-10T03:46:57.249Z,33.67
2018-04-10T03:49:23.444Z,33.37
2018-04-10T03:51:49.655Z,35.83
2018-04-10T03:54:15.920Z,33.40
2018-04-10T03:56:42.175Z,33.87
2018-04-10T03:59:08.471Z,32.30
2018-04-10T04:01:34.756Z,33.37
2018-04-10T04:04:01.049Z,32.57
2018-04-10T04:06:27.244Z,31.60
2018-04-10T04:08:53.473Z,31.40
2018-04-10T04:11:19.706Z,31.33
2018-04-10T04:13:45.957Z,31.97
2018-04-10T04:16:24.509Z,32.73
2018-04-10T04:19:03.891Z,32.37
2018-04-10T04:21:42.491Z,31.53
2018-04-10T04:24:08.715Z,30.97
2018-04-10T04:26:34.978Z,31.77
2018-04-10T04:29:01.178Z,31.03
2018-04-10T04:31:27.399Z,30.27
2018-04-10T04:33:53.625Z,30.83
2018-04-10T04:36:19.863Z,31.40
2018-04-10T04:38:46.077Z,31.07
2018-04-10T04:41:12.422Z,30.87
2018-04-10T04:43:38.726Z,30.50
2018-04-10T04:46:05.028Z,29.77
2018-04-10T04:48:32.034Z,29.93
2018-04-10T04:50:58.251Z,30.37
2018-04-10T04:53:24.501Z,29.93
2018-04-10T04:55:50.718Z,30.93
2018-04-10T04:58:16.973Z,30.77
2018-04-10T05:00:43.218Z,30.23
2018-04-10T05:03:09.837Z,30.60
2018-04-10T05:05:36.847Z,29.60
2018-04-10T05:08:03.119Z,29.70
2018-04-10T05:10:32.648Z,30.60
2018-04-10T05:12:58.904Z,29.63
2018-04-10T05:15:25.176Z,29.20
2018-04-10T05:17:51.420Z,29.67
2018-04-10T05:20:18.507Z,31.03
2018-04-10T05:22:44.768Z,31.03
2018-04-10T05:25:10.995Z,29.43
2018-04-10T05:27:37.269Z,29.37
2018-04-10T05:30:03.510Z,28.30
2018-04-10T05:32:29.728Z,29.73
2018-04-10T05:34:56.004Z,29.33
2018-04-10T05:37:22.246Z,29.53
2018-04-10T05:39:48.513Z,29.70
2018-04-10T05:42:14.875Z,29.93
2018-04-10T05:44:41.141Z,30.07
2018-04-10T05:47:07.366Z,28.83
2018-04-10T05:49:33.631Z,29.33
2018-04-10T05:51:59.845Z,28.33
2018-04-10T05:54:26.800Z,28.27
2018-04-10T05:56:53.811Z,28.70
2018-04-10T05:59:20.069Z,27.00
2018-04-10T06:01:47.054Z,27.13
2018-04-10T06:04:13.339Z,28.00
2018-04-10T06:06:40.309Z,27.17
2018-04-10T06:09:06.643Z,26.80
2018-04-10T06:11:32.856Z,27.17
2018-04-10T06:13:59.074Z,27.23
2018-04-10T06:16:25.516Z,25.87
2018-04-10T06:18:51.936Z,25.60
2018-04-10T06:21:18.175Z,24.30
2018-04-10T06:23:44.434Z,24.53
2018-04-10T06:26:10.667Z,23.93
2018-04-10T06:28:36.855Z,24.43
2018-04-10T06:31:03.110Z,22.33
2018-04-10T06:33:29.483Z,22.40
2018-04-10T06:35:55.818Z,21.73
2018-04-10T06:38:22.885Z,21.70
2018-04-10T06:40:49.921Z,21.77
2018-04-10T06:43:16.148Z,21.47
2018-04-10T06:45:42.424Z,20.33
2018-04-10T06:48:08.660Z,20.97
2018-04-10T06:50:34.856Z,19.33
2018-04-10T06:53:01.900Z,19.70
2018-04-10T06:55:28.973Z,19.57
2018-04-10T06:57:55.192Z,19.47
2018-04-10T07:00:21.499Z,17.97
2018-04-10T07:02:48.499Z,18.50
2018-04-10T07:05:14.707Z,17.87
2018-04-10T07:07:40.940Z,17.23
2018-04-10T07:10:07.180Z,16.77
2018-04-10T07:12:33.453Z,16.63
2018-04-10T07:14:59.762Z,16.60
2018-04-10T07:17:26.716Z,15.60
2018-04-10T07:19:53.697Z,14.90
2018-04-10T07:22:19.917Z,15.07
2018-04-10T07:24:46.120Z,15.07
2018-04-10T07:27:13.139Z,14.30
2018-04-10T07:29:39.384Z,13.40
2018-04-10T07:32:06.466Z,13.30
2018-04-10T07:34:32.760Z,12.07
2018-04-10T07:36:59.023Z,12.77
2018-04-10T07:39:25.260Z,12.87
2018-04-10T07:41:51.492Z,12.97
2018-04-10T07:44:17.705Z,13.67
2018-04-10T07:46:43.917Z,12.20
2018-04-10T07:49:10.921Z,12.97
2018-04-10T07:51:37.459Z,12.43
2018-04-10T07:54:03.776Z,12.43
2018-04-10T07:56:29.983Z,11.87
2018-04-10T07:58:56.211Z,11.57
2018-04-10T08:01:22.427Z,11.10
2018-04-10T08:03:48.689Z,11.10
2018-04-10T08:06:14.925Z,11.60
2018-04-10T08:08:41.238Z,11.17
2018-04-10T08:11:08.098Z,9.97
2018-04-10T08:13:34.347Z,9.80
2018-04-10T08:16:00.575Z,10.47
2018-04-10T08:18:26.888Z,10.37
2018-04-10T08:20:53.143Z,9.83
2018-04-10T08:23:20.139Z,10.30
2018-04-10T08:25:46.415Z,10.47
2018-04-10T08:28:13.453Z,10.30
2018-04-10T08:30:40.436Z,10.07
2018-04-10T08:33:06.661Z,10.10
2018-04-10T08:35:33.415Z,9.13
2018-04-10T08:37:59.659Z,6.83
2018-04-10T08:40:25.905Z,6.67
2018-04-10T08:42:52.118Z,4.97
2018-04-10T08:45:18.404Z,4.47
2018-04-10T08:47:44.691Z,4.70
2018-04-10T08:50:10.908Z,6.97
2018-04-10T08:52:37.923Z,7.37
2018-04-10T08:55:04.136Z,4.90
2018-04-10T08:57:31.090Z,5.10
2018-04-10T08:59:57.364Z,5.40
2018-04-10T09:02:23.609Z,5.03
2018-04-10T09:04:50.635Z,4.90
2018-04-10T09:07:16.907Z,4.50
2018-04-10T09:09:43.155Z,4.90
2018-04-10T09:12:09.410Z,11.87
2018-04-10T09:14:35.621Z,11.00
2018-04-10T09:17:01.840Z,5.43
2018-04-10T09:19:28.035Z,6.00
2018-04-10T09:21:55.358Z,5.07
2018-04-10T09:24:22.981Z,6.10
2018-04-10T09:26:49.240Z,5.10
2018-04-10T09:29:15.439Z,5.10
2018-04-10T09:31:41.659Z,4.83
2018-04-10T09:34:07.893Z,5.47
2018-04-10T09:36:34.116Z,6.70
2018-04-10T09:39:00.376Z,6.50
2018-04-10T09:41:26.671Z,7.10
2018-04-10T09:43:52.996Z,7.37
2018-04-10T09:46:19.239Z,6.23
2018-04-10T09:48:45.507Z,6.40
2018-04-10T09:51:11.719Z,5.70
2018-04-10T09:53:37.937Z,5.53
2018-04-10T09:56:04.132Z,5.43
2018-04-10T09:58:30.377Z,5.43
2018-04-10T10:00:56.736Z,5.67
2018-04-10T10:03:22.982Z,4.63
2018-04-10T10:05:49.255Z,4.50
2018-04-10T10:08:15.463Z,4.70
2018-04-10T10:10:42.439Z,4.00
2018-04-10T10:13:08.668Z,4.10
2018-04-10T10:15:34.926Z,3.87
2018-04-10T10:18:01.296Z,3.60
2018-04-10T10:20:27.565Z,3.40
2018-04-10T10:22:53.792Z,3.50
2018-04-10T10:25:19.995Z,3.53
2018-04-10T10:27:46.294Z,4.60
2018-04-10T10:30:12.557Z,4.90
2018-04-10T10:32:38.797Z,5.13
2018-04-10T10:35:05.087Z,5.70
2018-04-10T10:37:32.114Z,5.60
2018-04-10T10:39:58.354Z,5.50
2018-04-10T10:42:24.597Z,5.80
2018-04-10T10:44:51.573Z,5.87
2018-04-10T10:47:17.788Z,5.70
2018-04-10T10:49:44.010Z,5.77
2018-04-10T10:52:10.253Z,5.70
2018-04-10T10:54:36.551Z,5.03
2018-04-10T10:57:03.547Z,4.50
2018-04-10T10:59:29.751Z,4.70
2018-04-10T11:01:56.016Z,4.40
2018-04-10T11:04:22.273Z,4.67
2018-04-10T11:06:48.499Z,4.20
2018-04-10T11:09:15.493Z,4.20
2018-04-10T11:11:41.808Z,4.40
2018-04-10T11:14:08.330Z,4.07
2018-04-10T11:16:34.609Z,4.47
2018-04-10T11:19:00.828Z,3.90
2018-04-10T11:21:27.067Z,4.20
2018-04-10T11:23:53.367Z,4.23
2018-04-10T11:26:19.642Z,3.77
2018-04-10T11:28:45.923Z,3.60
2018-04-10T11:31:12.234Z,3.63
2018-04-10T11:33:45.476Z,4.17
2018-04-10T11:36:11.752Z,4.07
2018-04-10T11:38:37.973Z,3.90
2018-04-10T11:41:04.987Z,4.33
2018-04-10T11:43:31.295Z,4.87
2018-04-10T11:45:57.556Z,5.10
2018-04-10T11:48:24.544Z,4.80
2018-04-10T11:50:50.772Z,4.80
2018-04-10T11:53:17.206Z,3.80
2018-04-10T11:55:43.492Z,3.53
2018-04-10T11:58:09.812Z,3.60
2018-04-10T12:00:36.040Z,3.30
2018-04-10T12:03:02.280Z,3.90
2018-04-10T12:05:29.269Z,4.00
2018-04-10T12:07:55.579Z,3.67
2018-04-10T12:10:22.912Z,3.43
2018-04-10T12:12:49.909Z,3.63
2018-04-10T12:15:16.595Z,3.13
2018-04-10T12:17:46.272Z,3.17
2018-04-10T12:20:12.608Z,3.33
2018-04-10T12:22:39.096Z,3.10
2018-04-10T12:25:05.365Z,3.20
2018-04-10T12:27:31.616Z,3.60
2018-04-10T12:29:57.968Z,3.57
2018-04-10T12:32:24.400Z,3.27
2018-04-10T12:34:51.373Z,3.43
2018-04-10T12:37:18.824Z,3.60
2018-04-10T12:39:45.056Z,3.60
2018-04-10T12:42:11.276Z,3.63
2018-04-10T12:44:37.558Z,3.40
2018-04-10T12:47:03.802Z,3.37
2018-04-10T12:49:32.280Z,3.40
2018-04-10T12:51:59.103Z,3.40
2018-04-10T12:54:26.304Z,3.57
2018-04-10T12:56:52.548Z,2.80
2018-04-10T12:59:18.756Z,2.83
2018-04-10T13:01:44.986Z,4.00
2018-04-10T13:04:11.219Z,3.67
2018-04-10T13:06:37.434Z,3.63
2018-04-10T13:09:03.690Z,3.40
2018-04-10T13:11:29.944Z,3.57
2018-04-10T13:13:56.298Z,2.50
2018-04-10T13:16:23.288Z,2.00
2018-04-10T13:18:49.532Z,1.63
2018-04-10T13:21:15.795Z,2.47
2018-04-10T13:23:42.024Z,3.10
2018-04-10T13:26:08.275Z,3.03
2018-04-10T13:28:34.527Z,3.17
2018-04-10T13:31:00.876Z,2.50
2018-04-10T13:33:27.888Z,3.20
2018-04-10T13:35:54.116Z,2.77
2018-04-10T13:38:20.350Z,2.70
2018-04-10T13:40:46.600Z,3.00
2018-04-10T13:43:12.841Z,2.67
2018-04-10T13:45:39.123Z,2.73
2018-04-10T13:48:06.173Z,2.73
2018-04-10T13:50:32.481Z,2.90
2018-04-10T13:52:58.744Z,2.90
2018-04-10T13:55:24.969Z,2.80
2018-04-10T13:57:51.196Z,3.10
2018-04-10T14:00:17.441Z,2.77
2018-04-10T14:02:43.669Z,2.73
2018-04-10T14:05:10.100Z,2.40
2018-04-10T14:07:36.452Z,2.30
2018-04-10T14:10:02.733Z,2.20
2018-04-10T14:12:28.987Z,2.20
2018-04-10T14:14:55.240Z,2.27
2018-04-10T14:17:21.480Z,1.90
2018-04-10T14:19:47.692Z,2.00
2018-04-10T14:22:13.932Z,2.27
2018-04-10T14:24:40.179Z,2.20
2018-04-10T14:27:07.201Z,2.37
2018-04-10T14:29:34.196Z,2.40
2018-04-10T14:32:00.410Z,2.13
2018-04-10T14:34:26.684Z,2.30
2018-04-10T14:36:52.982Z,2.40
2018-04-10T14:39:20.076Z,2.30
2018-04-10T14:41:46.364Z,2.23
2018-04-10T14:44:12.664Z,2.37
2018-04-10T14:46:38.929Z,2.50
2018-04-10T14:49:05.192Z,2.30
2018-04-10T14:51:31.413Z,2.40
2018-04-10T14:53:57.706Z,2.77
2018-04-10T14:56:23.947Z,2.40
2018-04-10T14:58:50.184Z,2.83
2018-04-10T15:01:16.547Z,2.63
2018-04-10T15:03:42.779Z,2.50
2018-04-10T15:06:09.213Z,2.77
2018-04-10T15:08:35.603Z,2.70
2018-04-10T15:11:01.898Z,2.63
2018-04-10T15:13:28.143Z,2.90
2018-04-10T15:15:54.384Z,2.73
2018-04-10T15:18:20.689Z,3.13
2018-04-10T15:20:47.258Z,3.00
2018-04-10T15:23:13.516Z,3.40
2018-04-10T15:25:39.803Z,3.20
2018-04-10T15:28:06.036Z,4.07
2018-04-10T15:30:32.264Z,4.20
2018-04-10T15:32:58.512Z,4.37
2018-04-10T15:35:25.503Z,5.13
2018-04-10T15:37:51.867Z,4.80
2018-04-10T15:40:18.182Z,5.13
2018-04-10T15:42:44.462Z,4.97
2018-04-10T15:45:10.784Z,5.37
2018-04-10T15:47:37.053Z,5.23
2018-04-10T15:50:03.307Z,4.83
2018-04-10T15:52:29.571Z,5.43
2018-04-10T15:54:55.896Z,5.20
2018-04-10T15:57:22.345Z,5.20
2018-04-10T15:59:48.574Z,4.73
2018-04-10T16:02:14.802Z,5.13
2018-04-10T16:04:41.031Z,4.23
2018-04-10T16:07:07.254Z,4.97
2018-04-10T16:09:40.673Z,5.40
2018-04-10T16:12:06.881Z,4.67
2018-04-10T16:14:33.114Z,5.10
2018-04-10T16:17:00.182Z,5.37
2018-04-10T16:19:26.514Z,5.70
2018-04-10T16:21:52.785Z,5.50
2018-04-10T16:24:19.035Z,4.90
2018-04-10T16:26:45.305Z,5.60
2018-04-10T16:29:11.539Z,5.90
2018-04-10T16:31:37.790Z,5.70
2018-04-10T16:34:04.048Z,5.13
2018-04-10T16:36:30.380Z,5.10
2018-04-10T16:38:56.695Z,5.83
2018-04-10T16:41:22.988Z,5.97
2018-04-10T16:43:49.198Z,5.87
2018-04-10T16:46:16.176Z,6.40
2018-04-10T16:48:42.423Z,6.20
2018-04-10T16:51:08.693Z,5.87
2018-04-10T16:53:35.767Z,6.00
2018-04-10T16:56:02.552Z,6.43
2018-04-10T16:58:28.884Z,6.23
2018-04-10T17:00:55.076Z,5.17
2018-04-10T17:03:21.273Z,5.27
2018-04-10T17:05:47.538Z,5.33
2018-04-10T17:08:13.748Z,5.23
2018-04-10T17:10:40.043Z,5.20
2018-04-10T17:13:06.367Z,5.37
2018-04-10T17:15:33.389Z,5.27
2018-04-10T17:17:59.609Z,5.87
2018-04-10T17:20:25.851Z,5.50
2018-04-10T17:22:52.135Z,6.07
2018-04-10T17:25:18.460Z,7.53
2018-04-10T17:27:44.731Z,7.80
2018-04-10T17:30:11.817Z,9.10
2018-04-10T17:32:38.927Z,8.80
2018-04-10T17:35:05.297Z,7.97
2018-04-10T17:37:32.343Z,8.40
2018-04-10T17:39:59.333Z,10.73
2018-04-10T17:42:25.604Z,9.87
2018-04-10T17:44:51.836Z,10.57
2018-04-10T17:47:18.134Z,11.27
2018-04-10T17:49:44.396Z,10.70
2018-04-10T17:52:10.725Z,14.17
2018-04-10T17:54:37.775Z,15.70
2018-04-10T17:57:04.096Z,15.53
2018-04-10T17:59:30.319Z,16.27
2018-04-10T18:01:56.648Z,16.03
2018-04-10T18:04:23.020Z,15.33
2018-04-10T18:06:49.319Z,13.83
2018-04-10T18:09:15.788Z,13.03
2018-04-10T18:11:42.027Z,14.03
2018-04-10T18:14:08.257Z,13.13
2018-04-10T18:16:34.480Z,14.33
2018-04-10T18:19:00.730Z,15.43
2018-04-10T18:21:28.216Z,16.77
2018-04-10T18:23:54.991Z,16.00
2018-04-10T18:26:21.860Z,16.13
2018-04-10T18:28:48.651Z,17.20
2018-04-10T18:31:15.698Z,17.97
2018-04-10T18:33:42.512Z,19.23
2018-04-10T18:36:09.479Z,18.70
2018-04-10T18:38:36.333Z,20.83
2018-04-10T18:41:03.812Z,18.80
2018-04-10T18:43:32.561Z,18.40
2018-04-10T18:46:00.646Z,18.83
2018-04-10T18:48:28.037Z,17.87
2018-04-10T18:50:54.373Z,16.63
2018-04-10T18:53:21.864Z,17.63
2018-04-10T18:55:51.824Z,17.53
2018-04-10T18:58:20.242Z,18.00
2018-04-10T19:00:48.004Z,17.90
2018-04-10T19:03:16.195Z,18.40
2018-04-10T19:05:42.467Z,18.07
2018-04-10T19:08:08.758Z,19.67
2018-04-10T19:10:35.033Z,19.23
2018-04-10T19:13:01.425Z,20.00
2018-04-10T19:15:28.983Z,19.30
2018-04-10T19:17:55.482Z,22.87
2018-04-10T19:20:21.718Z,22.20
2018-04-10T19:22:48.060Z,37.10
2018-04-10T19:25:14.324Z,63.67
2018-04-10T19:27:40.859Z,81.43
2018-04-10T19:30:07.158Z,66.70
2018-04-10T19:32:33.414Z,55.43
2018-04-10T19:34:59.697Z,40.00
2018-04-10T19:37:25.926Z,34.73
2018-04-10T19:39:52.247Z,34.07
2018-04-10T19:42:19.321Z,34.60
2018-04-10T19:44:45.576Z,42.47
2018-04-10T19:47:12.555Z,42.13
2018-04-10T19:49:38.802Z,40.37
2018-04-10T19:52:05.164Z,39.10
2018-04-10T19:54:32.356Z,38.60
2018-04-10T19:56:58.641Z,42.07
2018-04-10T19:59:25.375Z,42.77
2018-04-10T20:01:51.594Z,42.93
2018-04-10T20:04:18.656Z,42.17
2018-04-10T20:06:44.855Z,41.23
2018-04-10T20:09:11.821Z,41.57
2018-04-10T20:11:38.117Z,43.00
2018-04-10T20:14:05.417Z,39.23
2018-04-10T20:16:32.296Z,35.43
2018-04-10T20:18:58.631Z,32.60
2018-04-10T20:21:25.671Z,34.17
2018-04-10T20:23:51.976Z,33.47
2018-04-10T20:26:18.271Z,33.13
2018-04-10T20:28:44.725Z,25.77
2018-04-10T20:31:11.166Z,27.67
2018-04-10T20:33:37.760Z,27.40
2018-04-10T20:36:04.419Z,27.33
2018-04-10T20:38:31.693Z,29.03
2018-04-10T20:41:00.007Z,32.93
2018-04-10T20:43:26.363Z,29.43
2018-04-10T20:45:52.600Z,27.73
2018-04-10T20:48:18.958Z,25.87
2018-04-10T20:50:46.209Z,27.27
2018-04-10T20:53:13.204Z,26.60
2018-04-10T20:55:40.254Z,26.53
2018-04-10T20:58:06.528Z,26.67
2018-04-10T21:00:32.820Z,24.40
2018-04-10T21:02:59.041Z,26.60
2018-04-10T21:05:25.446Z,27.20
2018-04-10T21:07:52.609Z,29.13
2018-04-10T21:10:19.079Z,28.17
2018-04-10T21:12:45.355Z,25.87
2018-04-10T21:15:11.645Z,27.90
2018-04-10T21:17:37.915Z,24.93
2018-04-10T21:20:04.207Z,19.87
2018-04-10T21:22:30.440Z,21.67
2018-04-10T21:24:57.147Z,20.93
2018-04-10T21:27:24.640Z,26.13
2018-04-10T21:29:51.930Z,23.23
2018-04-10T21:32:18.246Z,21.70
2018-04-10T21:34:44.505Z,22.40
2018-04-10T21:37:10.754Z,20.60
2018-04-10T21:39:36.971Z,19.83
2018-04-10T21:42:03.237Z,17.20
2018-04-10T21:44:30.207Z,15.53
2018-04-10T21:46:56.471Z,16.67
2018-04-10T21:49:22.860Z,17.73
2018-04-10T21:51:49.130Z,15.53
2018-04-10T21:54:16.135Z,16.90
2018-04-10T21:56:42.355Z,16.47
2018-04-10T21:59:09.348Z,15.27
2018-04-10T22:01:35.570Z,15.43
2018-04-10T22:04:01.793Z,15.43
2018-04-10T22:06:35.108Z,14.73
2018-04-10T22:09:01.372Z,14.17
2018-04-10T22:11:28.345Z,12.67
2018-04-10T22:13:54.608Z,13.57
2018-04-10T22:16:20.836Z,13.90
2018-04-10T22:18:47.055Z,13.13
2018-04-10T22:21:13.305Z,14.23
2018-04-10T22:23:39.610Z,14.37
2018-04-10T22:26:05.862Z,14.37
2018-04-10T22:28:32.257Z,14.77
2018-04-10T22:30:58.595Z,13.27
2018-04-10T22:33:27.960Z,14.50
2018-04-10T22:35:54.323Z,15.77
2018-04-10T22:38:20.557Z,15.10
2018-04-10T22:40:46.794Z,15.27
2018-04-10T22:43:13.068Z,11.03
2018-04-10T22:45:39.322Z,7.83
2018-04-10T22:48:05.625Z,8.80
2018-04-10T22:50:31.860Z,8.43
2018-04-10T22:52:58.885Z,7.37
2018-04-10T22:55:25.132Z,8.90
2018-04-10T22:57:51.355Z,8.27
2018-04-10T23:00:29.935Z,8.07
2018-04-10T23:02:56.188Z,7.73
2018-04-10T23:05:22.377Z,7.80
2018-04-10T23:07:49.354Z,9.03
2018-04-10T23:10:16.301Z,6.90
2018-04-10T23:12:43.276Z,8.50
2018-04-10T23:15:09.551Z,9.40
2018-04-10T23:17:35.889Z,9.60
2018-04-10T23:20:02.132Z,10.77
2018-04-10T23:22:28.400Z,10.97
2018-04-10T23:24:54.647Z,10.27
2018-04-10T23:27:20.885Z,11.73
2018-04-10T23:29:47.141Z,11.13
2018-04-10T23:32:13.385Z,10.70
2018-04-10T23:34:39.670Z,12.10
2018-04-10T23:37:06.017Z,11.80
2018-04-10T23:39:32.295Z,11.80
2018-04-10T23:41:59.253Z,11.17
2018-04-10T23:44:25.504Z,13.13
2018-04-10T23:46:51.757Z,12.03
2018-04-10T23:49:18.716Z,10.93
2018-04-10T23:51:44.945Z,12.13
2018-04-10T23:54:11.184Z,12.80
2018-04-10T23:56:38.166Z,13.30
2018-04-10T23:59:04.390Z,13.17
